createdAt,value
2018-05-07T00:00:48.118Z,2.57
2018-05-07T00:03:20.674Z,2.00
2018-05-07T00:05:54.236Z,2.03
2018-05-07T00:08:27.630Z,2.13
2018-05-07T00:11:01.134Z,2.07
2018-05-07T00:13:33.660Z,2.17
2018-05-07T00:16:14.110Z,2.20
2018-05-07T00:18:56.641Z,1.93
2018-05-07T00:21:29.064Z,1.73
2018-05-07T00:24:01.703Z,2.10
2018-05-07T00:26:34.198Z,1.90
2018-05-07T00:29:07.612Z,1.80
2018-05-07T00:31:51.033Z,2.00
2018-05-07T00:34:24.460Z,1.70
2018-05-07T00:37:17.986Z,1.97
2018-05-07T00:39:54.613Z,2.50
2018-05-07T00:42:37.351Z,2.50
2018-05-07T00:45:09.950Z,2.07
2018-05-07T00:47:44.305Z,2.10
2018-05-07T00:50:18.812Z,1.80
2018-05-07T00:52:52.021Z,1.97
2018-05-07T00:55:24.416Z,2.37
2018-05-07T00:58:02.421Z,2.00
2018-05-07T01:00:35.924Z,2.00
2018-05-07T01:03:16.616Z,2.33
2018-05-07T01:05:50.855Z,2.17
2018-05-07T01:08:24.336Z,3.17
2018-05-07T01:10:58.889Z,2.63
2018-05-07T01:13:31.373Z,2.30
2018-05-07T01:16:13.080Z,2.53
2018-05-07T01:18:49.461Z,2.10
2018-05-07T01:21:22.772Z,2.27
2018-05-07T01:23:55.245Z,2.43
2018-05-07T01:26:29.908Z,1.87
2018-05-07T01:29:02.480Z,2.20
2018-05-07T01:31:38.234Z,2.13
2018-05-07T01:34:18.708Z,2.00
2018-05-07T01:36:55.205Z,2.00
2018-05-07T01:39:27.780Z,2.40
2018-05-07T01:42:01.912Z,2.17
2018-05-07T01:44:35.512Z,2.23
2018-05-07T01:47:08.968Z,2.20
2018-05-07T01:49:54.664Z,2.03
2018-05-07T01:53:10.178Z,2.10
2018-05-07T01:55:44.668Z,2.50
2018-05-07T01:58:18.202Z,2.30
2018-05-07T02:00:52.608Z,2.70
2018-05-07T02:03:25.774Z,2.40
2018-05-07T02:06:06.488Z,2.13
2018-05-07T02:08:39.696Z,2.23
2018-05-07T02:11:30.457Z,2.00
2018-05-07T02:14:02.817Z,2.30
2018-05-07T02:16:44.816Z,2.23
2018-05-07T02:19:21.907Z,2.00
2018-05-07T02:22:01.448Z,2.37
2018-05-07T02:24:34.053Z,2.13
2018-05-07T02:27:06.655Z,1.90
2018-05-07T02:29:39.132Z,2.93
2018-05-07T02:32:13.554Z,2.23
2018-05-07T02:34:46.729Z,2.20
2018-05-07T02:37:19.381Z,2.07
2018-05-07T02:39:55.019Z,2.40
2018-05-07T02:42:27.509Z,1.90
2018-05-07T02:45:01.037Z,2.10
2018-05-07T02:47:34.213Z,2.30
2018-05-07T02:50:16.862Z,1.83
2018-05-07T02:52:50.252Z,2.23
2018-05-07T02:55:23.711Z,2.60
2018-05-07T02:58:13.080Z,2.30
2018-05-07T03:00:46.665Z,2.10
2018-05-07T03:03:19.860Z,2.23
2018-05-07T03:05:52.341Z,2.20
2018-05-07T03:08:34.533Z,2.70
2018-05-07T03:11:06.969Z,2.33
2018-05-07T03:13:54.571Z,2.50
2018-05-07T03:16:28.021Z,2.43
2018-05-07T03:19:03.676Z,2.60
2018-05-07T03:21:36.072Z,2.70
2018-05-07T03:24:12.645Z,2.77
2018-05-07T03:26:53.228Z,2.73
2018-05-07T03:29:27.744Z,2.80
2018-05-07T03:32:00.156Z,2.97
2018-05-07T03:34:34.786Z,3.23
2018-05-07T03:37:07.268Z,2.90
2018-05-07T03:40:06.641Z,2.47
2018-05-07T03:42:39.177Z,3.40
2018-05-07T03:45:11.763Z,3.10
2018-05-07T03:47:44.364Z,2.53
2018-05-07T03:50:35.226Z,2.63
2018-05-07T03:53:07.962Z,2.40
2018-05-07T03:55:41.081Z,2.67
2018-05-07T03:58:13.404Z,2.23
2018-05-07T04:00:46.960Z,2.70
2018-05-07T04:03:19.385Z,2.90
2018-05-07T04:06:02.121Z,2.77
2018-05-07T04:08:38.652Z,2.40
2018-05-07T04:11:11.865Z,2.60
2018-05-07T04:13:44.348Z,2.83
2018-05-07T04:19:31.387Z,3.03
2018-05-07T04:22:16.820Z,2.90
2018-05-07T04:24:49.384Z,3.07
2018-05-07T04:27:22.061Z,2.73
2018-05-07T04:29:54.581Z,2.47
2018-05-07T04:32:27.006Z,2.80
2018-05-07T04:35:00.331Z,2.50
2018-05-07T04:37:32.717Z,2.50
2018-05-07T04:40:06.025Z,2.70
2018-05-07T04:42:39.337Z,2.63
2018-05-07T04:45:11.817Z,2.70
2018-05-07T04:47:44.333Z,2.07
2018-05-07T04:50:16.724Z,2.50
2018-05-07T04:53:12.816Z,3.10
2018-05-07T04:55:54.597Z,2.70
2018-05-07T04:58:27.941Z,3.00
2018-05-07T05:01:16.042Z,2.40
2018-05-07T05:03:50.413Z,2.70
2018-05-07T05:06:31.473Z,2.90
2018-05-07T05:09:17.714Z,2.67
2018-05-07T05:11:50.265Z,2.80
2018-05-07T05:14:22.852Z,2.60
2018-05-07T05:16:55.288Z,2.47
2018-05-07T05:19:35.658Z,2.50
2018-05-07T05:22:08.088Z,2.70
2018-05-07T05:24:40.677Z,3.80
2018-05-07T05:27:19.143Z,2.50
2018-05-07T05:29:51.589Z,3.00
2018-05-07T05:32:25.011Z,2.70
2018-05-07T05:35:02.009Z,2.90
2018-05-07T05:37:35.298Z,2.40
2018-05-07T05:40:08.865Z,2.57
2018-05-07T05:42:41.332Z,3.53
2018-05-07T05:45:13.992Z,3.10
2018-05-07T05:47:47.505Z,3.00
2018-05-07T05:50:20.011Z,2.70
2018-05-07T05:52:52.480Z,2.40
2018-05-07T05:55:24.851Z,2.87
2018-05-07T05:57:57.318Z,2.63
2018-05-07T06:00:32.908Z,3.00
2018-05-07T06:03:05.516Z,2.87
2018-05-07T06:05:39.838Z,2.80
2018-05-07T06:08:15.324Z,3.00
2018-05-07T06:10:48.645Z,2.80
2018-05-07T06:13:22.032Z,2.90
2018-05-07T06:15:56.473Z,2.57
2018-05-07T06:18:32.214Z,2.53
2018-05-07T06:21:13.822Z,3.00
2018-05-07T06:23:48.244Z,2.80
2018-05-07T06:26:21.345Z,3.10
2018-05-07T06:28:53.745Z,3.07
2018-05-07T06:31:39.669Z,2.70
2018-05-07T06:34:12.221Z,2.87
2018-05-07T06:36:45.426Z,3.30
2018-05-07T06:39:17.829Z,3.27
2018-05-07T06:41:50.397Z,3.83
2018-05-07T06:44:26.105Z,3.20
2018-05-07T06:46:58.577Z,3.80
2018-05-07T06:49:31.254Z,3.23
2018-05-07T06:52:05.951Z,3.30
2018-05-07T06:55:06.664Z,3.87
2018-05-07T06:57:43.497Z,4.10
2018-05-07T07:00:16.950Z,3.93
2018-05-07T07:02:49.613Z,3.00
2018-05-07T07:05:24.156Z,3.40
2018-05-07T07:07:56.861Z,2.93
2018-05-07T07:10:31.296Z,2.80
2018-05-07T07:13:04.556Z,2.40
2018-05-07T07:15:36.986Z,2.73
2018-05-07T07:18:09.457Z,3.73
2018-05-07T07:20:41.936Z,3.50
2018-05-07T07:23:14.482Z,3.37
2018-05-07T07:25:46.852Z,3.10
2018-05-07T07:28:22.585Z,3.47
2018-05-07T07:31:14.068Z,2.80
2018-05-07T07:33:46.538Z,3.20
2018-05-07T07:36:19.100Z,2.87
2018-05-07T07:38:51.479Z,2.70
2018-05-07T07:41:34.420Z,2.90
2018-05-07T07:44:19.757Z,2.40
2018-05-07T07:46:54.873Z,2.47
2018-05-07T07:49:27.344Z,2.27
2018-05-07T07:52:03.538Z,2.73
2018-05-07T07:54:36.807Z,2.27
2018-05-07T07:57:11.089Z,2.40
2018-05-07T07:59:50.924Z,2.63
2018-05-07T08:02:24.440Z,2.70
2018-05-07T08:04:56.932Z,2.80
2018-05-07T08:07:33.672Z,2.00
2018-05-07T08:10:08.151Z,2.63
2018-05-07T08:12:40.664Z,2.43
2018-05-07T08:15:25.213Z,2.27
2018-05-07T08:17:57.666Z,2.30
2018-05-07T08:20:34.068Z,2.67
2018-05-07T08:23:09.636Z,2.00
2018-05-07T08:25:50.416Z,2.80
2018-05-07T08:28:23.756Z,2.50
2018-05-07T08:31:04.302Z,2.70
2018-05-07T08:33:36.787Z,2.57
2018-05-07T08:36:09.361Z,2.63
2018-05-07T08:38:41.960Z,2.50
2018-05-07T08:41:14.473Z,2.23
2018-05-07T08:43:57.069Z,2.27
2018-05-07T08:46:29.493Z,2.30
2018-05-07T08:49:10.148Z,2.27
2018-05-07T08:51:46.725Z,2.50
2018-05-07T08:54:19.211Z,3.20
2018-05-07T08:56:51.604Z,2.40
2018-05-07T08:59:24.217Z,2.90
2018-05-07T09:01:57.608Z,2.47
2018-05-07T09:04:33.874Z,2.33
2018-05-07T09:07:22.068Z,2.43
2018-05-07T09:09:54.600Z,2.47
2018-05-07T09:12:27.952Z,2.30
2018-05-07T09:15:00.329Z,2.60
2018-05-07T09:17:32.720Z,2.37
2018-05-07T09:20:06.336Z,2.20
2018-05-07T09:22:43.648Z,1.97
2018-05-07T09:25:16.214Z,2.60
2018-05-07T09:27:49.401Z,2.30
2018-05-07T09:30:25.825Z,2.20
2018-05-07T09:32:58.210Z,2.30
2018-05-07T09:35:30.824Z,2.10
2018-05-07T09:38:25.160Z,2.20
2018-05-07T09:40:59.060Z,1.90
2018-05-07T09:43:31.656Z,2.17
2018-05-07T09:46:14.037Z,2.20
2018-05-07T09:48:47.408Z,1.30
2018-05-07T09:51:19.801Z,2.20
2018-05-07T09:53:52.204Z,2.80
2018-05-07T09:56:26.410Z,2.03
2018-05-07T09:59:00.913Z,1.80
2018-05-07T10:01:34.136Z,3.00
2018-05-07T10:04:15.801Z,2.13
2018-05-07T10:06:48.896Z,1.93
2018-05-07T10:09:24.900Z,2.30
2018-05-07T10:12:02.649Z,2.40
2018-05-07T10:14:36.040Z,2.20
2018-05-07T10:17:08.454Z,2.00
2018-05-07T10:19:40.876Z,2.30
2018-05-07T10:22:13.399Z,1.87
2018-05-07T10:24:45.807Z,2.20
2018-05-07T10:27:18.154Z,2.13
2018-05-07T10:29:53.786Z,2.10
2018-05-07T10:32:26.320Z,2.10
2018-05-07T10:34:58.692Z,1.80
2018-05-07T10:37:31.241Z,2.13
2018-05-07T10:40:03.777Z,2.03
2018-05-07T10:42:47.751Z,2.40
2018-05-07T10:45:25.140Z,2.50
2018-05-07T10:47:57.526Z,2.30
2018-05-07T10:50:30.116Z,2.20
2018-05-07T10:53:06.673Z,1.90
2018-05-07T10:55:41.129Z,2.40
2018-05-07T10:58:13.621Z,2.37
2018-05-07T11:00:46.200Z,2.60
2018-05-07T11:03:19.712Z,2.17
2018-05-07T11:05:52.934Z,2.13
2018-05-07T11:08:26.430Z,1.87
2018-05-07T11:10:58.936Z,2.07
2018-05-07T11:13:33.125Z,2.40
2018-05-07T11:16:14.038Z,2.50
2018-05-07T11:18:47.454Z,2.07
2018-05-07T11:21:19.924Z,2.43
2018-05-07T11:23:52.352Z,2.33
2018-05-07T11:26:24.893Z,2.20
2018-05-07T11:29:05.730Z,1.90
2018-05-07T11:31:38.144Z,1.93
2018-05-07T11:34:11.429Z,2.07
2018-05-07T11:36:43.960Z,1.90
2018-05-07T11:39:17.481Z,1.97
2018-05-07T11:41:50.165Z,2.03
2018-05-07T11:44:22.609Z,2.20
2018-05-07T11:46:55.041Z,2.17
2018-05-07T11:49:27.536Z,2.00
2018-05-07T11:52:00.733Z,2.00
2018-05-07T11:54:33.237Z,2.33
2018-05-07T11:57:06.848Z,2.27
2018-05-07T11:59:40.449Z,2.27
2018-05-07T12:02:13.136Z,1.90
2018-05-07T12:04:47.572Z,2.17
2018-05-07T12:07:27.545Z,2.10
2018-05-07T12:10:00.141Z,2.07
2018-05-07T12:12:32.728Z,1.50
2018-05-07T12:15:10.120Z,2.00
2018-05-07T12:17:54.514Z,1.97
2018-05-07T12:20:27.016Z,1.90
2018-05-07T12:22:59.372Z,2.30
2018-05-07T12:25:38.095Z,2.27
2018-05-07T12:28:10.598Z,1.70
2018-05-07T12:30:43.079Z,2.07
2018-05-07T12:33:19.761Z,2.00
2018-05-07T12:35:52.249Z,2.47
2018-05-07T12:38:24.628Z,1.70
2018-05-07T12:40:58.236Z,2.03
2018-05-07T12:43:40.904Z,2.00
2018-05-07T12:46:15.493Z,1.87
2018-05-07T12:48:50.976Z,2.37
2018-05-07T12:51:27.374Z,1.87
2018-05-07T12:54:04.762Z,1.40
2018-05-07T12:56:37.185Z,1.80
2018-05-07T12:59:14.433Z,1.93
2018-05-07T13:01:46.784Z,2.20
2018-05-07T13:04:22.085Z,2.57
2018-05-07T13:06:54.474Z,1.70
2018-05-07T13:09:31.349Z,1.87
2018-05-07T13:12:12.032Z,2.10
2018-05-07T13:14:44.599Z,1.57
2018-05-07T13:17:18.137Z,1.70
2018-05-07T13:19:54.524Z,1.57
2018-05-07T13:22:37.052Z,1.97
2018-05-07T13:25:09.476Z,1.87
2018-05-07T13:27:43.121Z,1.87
2018-05-07T13:30:31.549Z,1.90
2018-05-07T13:33:08.235Z,1.97
2018-05-07T13:35:41.501Z,2.10
2018-05-07T13:38:13.878Z,1.87
2018-05-07T13:40:47.504Z,1.97
2018-05-07T13:43:31.338Z,1.70
2018-05-07T13:46:04.880Z,1.67
2018-05-07T13:48:37.356Z,1.90
2018-05-07T13:51:09.996Z,1.70
2018-05-07T13:53:42.433Z,1.63
2018-05-07T13:56:17.988Z,2.00
2018-05-07T13:58:50.476Z,1.70
2018-05-07T14:01:25.014Z,2.03
2018-05-07T14:03:58.421Z,1.73
2018-05-07T14:06:32.755Z,2.00
2018-05-07T14:09:05.281Z,1.77
2018-05-07T14:11:37.941Z,2.20
2018-05-07T14:14:10.449Z,2.00
2018-05-07T14:16:44.932Z,1.60
2018-05-07T14:19:17.315Z,1.87
2018-05-07T14:21:49.927Z,1.60
2018-05-07T14:24:24.056Z,1.83
2018-05-07T14:26:56.431Z,1.50
2018-05-07T14:29:28.932Z,2.20
2018-05-07T14:32:01.520Z,1.60
2018-05-07T14:34:34.092Z,1.60
2018-05-07T14:37:07.624Z,1.70
2018-05-07T14:39:40.054Z,1.60
2018-05-07T14:42:13.435Z,1.70
2018-05-07T14:44:46.912Z,2.03
2018-05-07T14:47:19.412Z,2.17
2018-05-07T14:49:51.744Z,2.07
2018-05-07T14:52:24.386Z,1.80
2018-05-07T14:54:56.779Z,1.70
2018-05-07T14:58:01.841Z,1.77
2018-05-07T15:00:34.201Z,1.93
2018-05-07T15:03:07.536Z,1.50
2018-05-07T15:05:40.027Z,1.50
2018-05-07T15:08:13.425Z,1.90
2018-05-07T15:10:46.615Z,1.73
2018-05-07T15:13:34.306Z,1.43
2018-05-07T15:16:09.808Z,1.37
2018-05-07T15:18:43.238Z,1.80
2018-05-07T15:21:15.614Z,1.53
2018-05-07T15:23:48.777Z,1.67
2018-05-07T15:26:24.897Z,1.53
2018-05-07T15:28:59.609Z,1.80
2018-05-07T15:31:35.738Z,1.67
2018-05-07T15:34:08.366Z,1.70
2018-05-07T15:36:42.001Z,1.20
2018-05-07T15:39:15.408Z,1.60
2018-05-07T15:41:47.798Z,1.70
2018-05-07T15:44:21.413Z,1.77
2018-05-07T15:46:53.901Z,1.73
2018-05-07T15:49:27.427Z,1.50
2018-05-07T15:52:00.029Z,1.60
2018-05-07T15:54:32.532Z,1.60
2018-05-07T15:57:09.383Z,1.50
2018-05-07T15:59:42.700Z,1.50
2018-05-07T16:02:15.888Z,1.70
2018-05-07T16:04:51.852Z,1.70
2018-05-07T16:07:24.262Z,1.40
2018-05-07T16:09:57.566Z,2.10
2018-05-07T16:12:30.049Z,1.97
2018-05-07T16:15:02.821Z,1.77
2018-05-07T16:17:35.135Z,1.93
2018-05-07T16:20:09.236Z,1.60
2018-05-07T16:22:42.555Z,1.30
2018-05-07T16:25:16.148Z,1.60
2018-05-07T16:27:48.864Z,1.63
2018-05-07T16:30:22.023Z,1.80
2018-05-07T16:32:56.609Z,1.53
2018-05-07T16:35:29.204Z,1.53
2018-05-07T16:38:01.711Z,1.57
2018-05-07T16:40:34.469Z,1.60
2018-05-07T16:43:10.851Z,2.10
2018-05-07T16:45:44.460Z,1.53
2018-05-07T16:48:16.846Z,1.63
2018-05-07T16:50:49.436Z,1.20
2018-05-07T16:53:21.780Z,1.50
2018-05-07T16:55:56.268Z,1.50
2018-05-07T16:58:28.732Z,1.50
2018-05-07T17:01:01.534Z,1.60
2018-05-07T17:03:34.829Z,1.63
2018-05-07T17:06:08.344Z,1.40
2018-05-07T17:08:41.037Z,2.10
2018-05-07T17:11:13.784Z,1.47
2018-05-07T17:13:54.205Z,2.10
2018-05-07T17:16:27.369Z,1.40
2018-05-07T17:19:00.721Z,1.53
2018-05-07T17:21:33.208Z,2.07
2018-05-07T17:24:05.588Z,1.73
2018-05-07T17:26:37.977Z,1.90
2018-05-07T17:29:10.581Z,2.20
2018-05-07T17:31:43.423Z,1.43
2018-05-07T17:34:16.073Z,1.70
2018-05-07T17:36:48.485Z,2.27
2018-05-07T17:39:21.058Z,1.90
2018-05-07T17:41:53.462Z,2.10
2018-05-07T17:44:38.189Z,2.10
2018-05-07T17:47:31.201Z,2.13
2018-05-07T17:50:04.496Z,2.33
2018-05-07T17:52:37.808Z,1.97
2018-05-07T17:55:10.157Z,2.10
2018-05-07T17:57:46.856Z,2.47
2018-05-07T18:00:19.347Z,2.07
2018-05-07T18:02:52.954Z,1.80
2018-05-07T18:05:26.368Z,2.20
2018-05-07T18:07:58.855Z,1.90
2018-05-07T18:10:31.350Z,2.00
2018-05-07T18:13:04.016Z,2.03
2018-05-07T18:15:36.389Z,2.00
2018-05-07T18:18:08.876Z,2.10
2018-05-07T18:20:41.276Z,1.87
2018-05-07T18:23:13.876Z,1.67
2018-05-07T18:25:56.482Z,1.80
2018-05-07T18:28:29.093Z,2.03
2018-05-07T18:31:02.608Z,2.00
2018-05-07T18:33:44.037Z,1.97
2018-05-07T18:36:20.584Z,2.13
2018-05-07T18:38:53.280Z,1.90
2018-05-07T18:41:29.467Z,1.70
2018-05-07T18:44:02.085Z,2.00
2018-05-07T18:46:34.637Z,1.77
2018-05-07T18:49:12.037Z,2.17
2018-05-07T18:51:46.265Z,2.00
2018-05-07T18:54:23.865Z,2.20
2018-05-07T18:56:56.292Z,1.70
2018-05-07T18:59:44.659Z,2.23
2018-05-07T19:02:58.293Z,2.17
2018-05-07T19:05:32.526Z,1.90
2018-05-07T19:08:04.940Z,2.37
2018-05-07T19:10:38.183Z,1.80
2018-05-07T19:13:10.692Z,2.10
2018-05-07T19:15:51.821Z,2.20
2018-05-07T19:18:24.984Z,2.00
2018-05-07T19:21:00.845Z,1.60
2018-05-07T19:23:42.443Z,2.53
2018-05-07T19:26:36.785Z,2.30
2018-05-07T19:29:16.393Z,2.07
2018-05-07T19:31:51.697Z,2.30
2018-05-07T19:34:26.195Z,2.07
2018-05-07T19:37:06.053Z,2.10
2018-05-07T19:39:51.628Z,2.40
2018-05-07T19:42:24.074Z,2.70
2018-05-07T19:44:58.768Z,2.23
2018-05-07T19:47:32.202Z,2.23
2018-05-07T19:50:05.686Z,2.07
2018-05-07T19:52:39.101Z,2.07
2018-05-07T19:55:20.601Z,2.10
2018-05-07T19:58:08.856Z,1.93
2018-05-07T20:00:42.491Z,2.10
2018-05-07T20:03:14.805Z,2.20
2018-05-07T20:05:48.080Z,2.93
2018-05-07T20:08:22.280Z,2.77
2018-05-07T20:10:58.549Z,2.37
2018-05-07T20:13:31.025Z,2.30
2018-05-07T20:16:03.656Z,2.80
2018-05-07T20:18:36.124Z,2.50
2018-05-07T20:21:09.542Z,2.93
2018-05-07T20:23:42.215Z,2.40
2018-05-07T20:26:14.832Z,3.03
2018-05-07T20:28:52.174Z,2.57
2018-05-07T20:31:24.814Z,2.30
2018-05-07T20:33:57.303Z,2.30
2018-05-07T20:36:29.744Z,2.83
2018-05-07T20:39:02.423Z,2.33
2018-05-07T20:41:34.904Z,3.17
2018-05-07T20:44:07.371Z,2.07
2018-05-07T20:46:39.939Z,2.93
2018-05-07T20:49:12.297Z,2.40
2018-05-07T20:51:48.910Z,1.93
2018-05-07T20:54:21.497Z,2.90
2018-05-07T20:56:53.990Z,2.37
2018-05-07T20:59:26.588Z,2.30
2018-05-07T21:02:01.059Z,2.60
2018-05-07T21:04:33.498Z,2.67
2018-05-07T21:07:06.688Z,2.50
2018-05-07T21:09:39.111Z,2.47
2018-05-07T21:12:12.140Z,2.47
2018-05-07T21:14:44.672Z,2.43
2018-05-07T21:17:27.613Z,2.50
2018-05-07T21:20:00.156Z,2.27
2018-05-07T21:22:34.552Z,3.23
2018-05-07T21:25:12.992Z,2.90
2018-05-07T21:27:45.548Z,2.40
2018-05-07T21:30:18.004Z,2.53
2018-05-07T21:32:51.231Z,2.70
2018-05-07T21:35:27.721Z,2.00
2018-05-07T21:38:15.116Z,2.43
2018-05-07T21:40:47.648Z,3.43
2018-05-07T21:43:28.122Z,2.90
2018-05-07T21:46:01.329Z,2.77
2018-05-07T21:48:33.819Z,2.60
2018-05-07T21:51:39.501Z,2.50
2018-05-07T21:54:12.068Z,2.50
2018-05-07T21:56:47.744Z,3.00
2018-05-07T21:59:23.180Z,2.53
2018-05-07T22:01:55.673Z,2.47
2018-05-07T22:04:28.074Z,3.03
2018-05-07T22:07:13.652Z,3.00
2018-05-07T22:09:49.042Z,2.80
2018-05-07T22:12:25.953Z,3.03
2018-05-07T22:14:58.416Z,3.00
2018-05-07T22:17:38.977Z,3.17
2018-05-07T22:20:16.369Z,3.07
2018-05-07T22:22:56.045Z,3.40
2018-05-07T22:25:28.416Z,3.30
2018-05-07T22:28:00.792Z,3.63
2018-05-07T22:30:38.643Z,3.70
2018-05-07T22:33:16.009Z,3.60
2018-05-07T22:35:54.652Z,3.73
2018-05-07T22:38:27.056Z,4.37
2018-05-07T22:41:00.653Z,4.03
2018-05-07T22:43:38.660Z,3.67
2018-05-07T22:46:11.218Z,3.90
2018-05-07T22:48:43.789Z,3.70
2018-05-07T22:51:20.212Z,4.10
2018-05-07T22:53:53.725Z,3.50
2018-05-07T22:56:26.244Z,4.80
2018-05-07T22:58:59.525Z,3.20
2018-05-07T23:01:33.852Z,3.90
2018-05-07T23:04:08.317Z,3.40
2018-05-07T23:06:54.945Z,3.43
2018-05-07T23:09:36.505Z,3.13
2018-05-07T23:12:35.760Z,3.47
2018-05-07T23:15:08.217Z,3.20
2018-05-07T23:17:42.640Z,3.80
2018-05-07T23:20:15.072Z,4.10
2018-05-07T23:23:23.556Z,3.83
2018-05-07T23:26:02.217Z,3.80
2018-05-07T23:28:34.791Z,3.30
2018-05-07T23:31:07.192Z,3.47
2018-05-07T23:33:39.756Z,3.47
2018-05-07T23:36:12.246Z,3.53
2018-05-07T23:39:17.389Z,3.30
2018-05-07T23:41:51.900Z,3.67
2018-05-07T23:44:37.379Z,3.20
2018-05-07T23:47:11.972Z,3.20
2018-05-07T23:49:44.352Z,2.67
2018-05-07T23:52:35.944Z,2.83
2018-05-07T23:55:08.692Z,3.17
2018-05-07T23:57:41.941Z,2.87
